Time;durP1;ratioP1;P1;durP2;ratioP2;P2;SDS_P1;SDS_P2;PMS_P1;PMS_P2;Temp;Humidity;BMP_temperature;BMP_pressure;BME280_temperature;BME280_humidity;BME280_pressure;Samples;Min_cycle;Max_cycle;Signal;HPM_P1;HPM_P2
2021/05/14 00:00:28;;;;;;;4.37;3.07;;;12.40;95.00;;;;;;4426881;32;20180;-71
2021/05/14 00:02:55;;;;;;;4.40;3.07;;;12.40;95.30;;;;;;4426891;32;20411;-72
2021/05/14 00:05:23;;;;;;;5.10;3.40;;;12.30;95.60;;;;;;4427135;32;20161;-72
2021/05/14 00:07:50;;;;;;;8.83;3.27;;;12.30;96.00;;;;;;4426725;32;20131;-71
2021/05/14 00:10:21;;;;;;;6.67;3.47;;;12.30;96.00;;;;;;4427128;32;20192;-71
2021/05/14 00:12:52;;;;;;;8.87;3.60;;;12.30;96.50;;;;;;4428515;32;20139;-70
2021/05/14 00:15:19;;;;;;;8.23;3.50;;;12.20;96.80;;;;;;4426766;32;20127;-72
2021/05/14 00:17:47;;;;;;;5.93;3.40;;;12.20;97.50;;;;;;4426583;32;20556;-73
2021/05/14 00:20:14;;;;;;;5.20;3.30;;;12.10;97.80;;;;;;4426607;32;20146;-73
2021/05/14 00:22:41;;;;;;;5.83;3.50;;;12.10;98.00;;;;;;4426557;32;20135;-72
2021/05/14 00:25:09;;;;;;;7.20;3.40;;;12.10;98.40;;;;;;4426602;32;20150;-72
2021/05/14 00:27:36;;;;;;;7.17;3.70;;;12.10;98.80;;;;;;4426029;32;20434;-71
2021/05/14 00:30:08;;;;;;;6.40;3.40;;;12.00;99.10;;;;;;4411400;32;20132;-71
2021/05/14 00:32:36;;;;;;;5.93;3.90;;;12.00;99.40;;;;;;4427523;32;20401;-71
2021/05/14 00:35:07;;;;;;;6.03;3.63;;;12.00;99.70;;;;;;4426376;32;20182;-70
2021/05/14 00:37:34;;;;;;;6.23;3.60;;;12.00;99.90;;;;;;4425989;32;20146;-72
2021/05/14 00:40:03;;;;;;;6.70;3.70;;;11.90;99.90;;;;;;4426217;32;20406;-70
2021/05/14 00:42:29;;;;;;;8.00;3.70;;;11.90;99.90;;;;;;4426215;32;20513;-70
2021/05/14 00:44:56;;;;;;;6.03;3.70;;;11.90;99.90;;;;;;4426335;32;20134;-71
2021/05/14 00:47:23;;;;;;;6.83;3.80;;;11.90;99.90;;;;;;4426644;32;20214;-69
2021/05/14 00:49:50;;;;;;;5.43;3.70;;;11.80;99.90;;;;;;4426118;32;20147;-70
2021/05/14 00:52:19;;;;;;;6.73;3.80;;;11.80;99.90;;;;;;4426164;32;20545;-71
2021/05/14 00:54:48;;;;;;;5.93;3.57;;;11.80;99.90;;;;;;4425448;32;20464;-71
2021/05/14 00:57:16;;;;;;;7.77;3.73;;;11.80;99.90;;;;;;4425815;32;20464;-71
2021/05/14 00:59:45;;;;;;;4.57;3.80;;;11.80;99.90;;;;;;4425290;32;20399;-70
2021/05/14 01:02:12;;;;;;;8.37;3.70;;;11.80;99.90;;;;;;4427222;32;20188;-70
2021/05/14 01:04:42;;;;;;;7.50;3.60;;;11.80;99.90;;;;;;4425975;32;20131;-71
2021/05/14 01:07:10;;;;;;;8.27;3.87;;;11.70;99.90;;;;;;4425942;32;20147;-71
2021/05/14 01:09:41;;;;;;;6.03;3.70;;;11.70;99.90;;;;;;4427292;32;20171;-71
2021/05/14 01:12:10;;;;;;;5.13;3.57;;;11.70;99.90;;;;;;4425971;32;20438;-70
2021/05/14 01:14:41;;;;;;;6.70;3.90;;;11.70;99.90;;;;;;4425827;32;20149;-70
2021/05/14 01:17:08;;;;;;;5.37;3.50;;;11.60;99.90;;;;;;4425779;32;20131;-73
2021/05/14 01:19:35;;;;;;;7.10;3.70;;;11.60;99.90;;;;;;4425135;32;20559;-72
2021/05/14 01:22:03;;;;;;;5.87;3.97;;;11.60;99.90;;;;;;4425981;32;20450;-72
2021/05/14 01:24:32;;;;;;;7.70;4.07;;;11.50;99.90;;;;;;4411987;32;20483;-70
2021/05/14 01:27:00;;;;;;;6.57;3.73;;;11.50;99.90;;;;;;4425610;32;20131;-70
2021/05/14 01:29:27;;;;;;;6.30;4.53;;;11.50;99.90;;;;;;4425648;32;20544;-72
2021/05/14 01:31:54;;;;;;;6.07;3.90;;;11.50;99.90;;;;;;4425676;32;20144;-70
2021/05/14 01:34:22;;;;;;;5.00;3.80;;;11.50;99.90;;;;;;4424993;32;20158;-70
2021/05/14 01:36:49;;;;;;;4.97;3.53;;;11.50;99.90;;;;;;4410869;32;20430;-70
2021/05/14 01:39:22;;;;;;;9.23;4.13;;;11.50;99.90;;;;;;4425305;32;20151;-72
2021/05/14 01:41:50;;;;;;;5.53;3.77;;;11.50;99.90;;;;;;4425504;32;20704;-70
2021/05/14 01:44:18;;;;;;;6.73;3.63;;;11.40;99.90;;;;;;4425417;32;20142;-70
2021/05/14 01:46:45;;;;;;;6.93;4.00;;;11.40;99.90;;;;;;4425163;32;20158;-70
2021/05/14 01:49:13;;;;;;;5.83;3.87;;;11.40;99.90;;;;;;4424665;32;20155;-71
2021/05/14 01:51:40;;;;;;;6.93;4.00;;;11.40;99.90;;;;;;4425581;32;20153;-71
2021/05/14 01:54:07;;;;;;;6.47;4.20;;;11.40;99.90;;;;;;4426772;32;20180;-71
2021/05/14 01:56:34;;;;;;;5.83;4.30;;;11.30;99.90;;;;;;4426633;32;20424;-71
2021/05/14 01:59:03;;;;;;;6.23;3.93;;;11.40;99.90;;;;;;4425065;32;20158;-71
2021/05/14 02:01:29;;;;;;;8.93;4.47;;;11.40;99.90;;;;;;4425115;32;20204;-72
2021/05/14 02:03:56;;;;;;;9.37;4.20;;;11.30;99.90;;;;;;4425059;32;20248;-71
2021/05/14 02:06:23;;;;;;;7.00;4.10;;;11.30;99.90;;;;;;4426467;32;20465;-72
2021/05/14 02:08:50;;;;;;;7.10;4.13;;;11.20;99.90;;;;;;4425043;32;20139;-72
2021/05/14 02:11:17;;;;;;;7.03;4.23;;;11.20;99.90;;;;;;4424762;32;20170;-70
2021/05/14 02:13:44;;;;;;;9.20;4.40;;;11.20;99.90;;;;;;4424626;32;20225;-71
2021/05/14 02:16:11;;;;;;;6.73;4.43;;;11.10;99.90;;;;;;4424305;32;20138;-71
2021/05/14 02:18:39;;;;;;;6.47;4.23;;;11.20;99.90;;;;;;4426256;32;20151;-72
2021/05/14 02:21:07;;;;;;;8.10;4.20;;;11.10;99.90;;;;;;4424733;32;20151;-70
2021/05/14 02:23:35;;;;;;;5.73;3.87;;;11.10;99.90;;;;;;4424991;32;20135;-71
2021/05/14 02:26:03;;;;;;;6.03;4.20;;;11.20;99.90;;;;;;4425592;32;20393;-71
2021/05/14 02:28:30;;;;;;;5.87;4.50;;;11.10;99.90;;;;;;4426183;32;20542;-71
2021/05/14 02:30:57;;;;;;;7.83;4.50;;;11.10;99.90;;;;;;4424086;32;20167;-71
2021/05/14 02:33:25;;;;;;;7.57;4.40;;;11.10;99.90;;;;;;4424315;32;20145;-72
2021/05/14 02:35:52;;;;;;;6.17;4.40;;;11.10;99.90;;;;;;4424893;32;20456;-70
2021/05/14 02:38:19;;;;;;;6.60;4.50;;;11.10;99.90;;;;;;4424075;32;20147;-74
2021/05/14 02:40:46;;;;;;;8.13;4.70;;;11.10;99.90;;;;;;4424660;32;20131;-70
2021/05/14 02:43:13;;;;;;;9.43;4.90;;;11.10;99.90;;;;;;4424872;32;20225;-71
2021/05/14 02:45:40;;;;;;;7.73;4.50;;;11.00;99.90;;;;;;4424553;32;20143;-70
2021/05/14 02:48:07;;;;;;;6.60;4.47;;;11.00;99.90;;;;;;4410420;32;20163;-71
2021/05/14 02:50:35;;;;;;;7.73;4.53;;;11.00;99.90;;;;;;4425537;32;20223;-71
2021/05/14 02:53:03;;;;;;;11.33;5.10;;;11.00;99.90;;;;;;4422072;32;20417;-78
2021/05/14 02:55:30;;;;;;;7.47;4.70;;;10.90;99.90;;;;;;4422187;32;20192;-77
2021/05/14 02:57:57;;;;;;;9.00;4.80;;;10.90;99.90;;;;;;4421979;32;20151;-76
2021/05/14 03:00:24;;;;;;;6.43;4.63;;;10.90;99.90;;;;;;4423705;32;20151;-77
2021/05/14 03:02:51;;;;;;;6.63;4.40;;;10.90;99.90;;;;;;4422175;32;20203;-77
2021/05/14 03:05:18;;;;;;;8.23;5.10;;;11.00;99.90;;;;;;4422136;32;20281;-77
2021/05/14 03:07:45;;;;;;;7.23;5.00;;;10.90;99.90;;;;;;4422226;32;20197;-78
2021/05/14 03:10:12;;;;;;;6.90;4.80;;;10.90;99.90;;;;;;4422697;32;20452;-77
2021/05/14 03:12:39;;;;;;;7.10;4.90;;;10.90;99.90;;;;;;4424127;32;20130;-77
2021/05/14 03:15:07;;;;;;;8.37;4.90;;;10.90;99.90;;;;;;4424213;32;20183;-77
2021/05/14 03:17:34;;;;;;;9.10;4.97;;;10.90;99.90;;;;;;4424200;32;20212;-77
2021/05/14 03:20:02;;;;;;;8.20;5.20;;;10.90;99.90;;;;;;4424010;32;20139;-74
2021/05/14 03:22:29;;;;;;;9.87;5.40;;;11.00;99.90;;;;;;4423186;32;20480;-74
2021/05/14 03:24:56;;;;;;;11.77;5.30;;;11.00;99.90;;;;;;4426791;32;20177;-84
2021/05/14 03:27:23;;;;;;;8.23;4.83;;;11.00;99.90;;;;;;4429086;32;20151;-81
2021/05/14 03:29:50;;;;;;;8.20;5.40;;;11.00;99.90;;;;;;4429590;32;20146;-82
2021/05/14 03:32:17;;;;;;;7.13;5.20;;;11.20;99.90;;;;;;4430572;32;20187;-84
2021/05/14 03:34:44;;;;;;;8.17;5.30;;;11.10;99.90;;;;;;4431091;32;20218;-84
2021/05/14 03:37:10;;;;;;;9.70;5.63;;;11.10;99.90;;;;;;4427502;32;20147;-82
2021/05/14 03:39:44;;;;;;;9.57;5.20;;;11.10;99.90;;;;;;4427142;32;20165;-83
2021/05/14 03:44:42;;;;;;;8.20;5.00;;;11.20;99.90;;;;;;4427557;32;20162;-83
2021/05/14 03:47:09;;;;;;;7.33;5.40;;;11.30;99.90;;;;;;4426851;32;20131;-83
2021/05/14 03:49:38;;;;;;;11.73;5.60;;;11.30;99.90;;;;;;4427113;32;20146;-83
2021/05/14 03:52:07;;;;;;;9.73;5.47;;;11.40;99.90;;;;;;4427755;32;20131;-83
2021/05/14 03:54:34;;;;;;;8.20;5.23;;;11.40;99.90;;;;;;4428477;32;20392;-83
2021/05/14 03:57:01;;;;;;;10.43;5.43;;;11.40;99.90;;;;;;4428221;32;20139;-84
2021/05/14 03:59:29;;;;;;;7.53;5.50;;;11.50;99.90;;;;;;4427098;32;20175;-85
2021/05/14 04:01:56;;;;;;;9.83;5.60;;;11.50;99.90;;;;;;4426978;32;20411;-84
2021/05/14 04:04:24;;;;;;;10.43;5.83;;;11.60;99.90;;;;;;4428119;32;20143;-84
2021/05/14 04:06:52;;;;;;;12.50;5.80;;;11.70;99.90;;;;;;4432577;32;20158;-83
2021/05/14 04:09:27;;;;;;;9.70;5.60;;;11.80;99.90;;;;;;4428349;32;20167;-84
2021/05/14 04:14:36;;;;;;;8.57;5.20;;;11.90;99.90;;;;;;4427030;32;20139;-83
2021/05/14 04:17:08;;;;;;;9.77;5.73;;;12.00;99.90;;;;;;4426813;32;20218;-81
2021/05/14 04:19:35;;;;;;;8.43;5.83;;;12.10;99.90;;;;;;4432722;32;20221;-82
2021/05/14 04:22:04;;;;;;;10.37;5.80;;;12.10;99.90;;;;;;4428256;32;20507;-82
2021/05/14 04:24:31;;;;;;;9.33;5.83;;;12.20;99.90;;;;;;4426572;32;20150;-82
2021/05/14 04:26:58;;;;;;;10.17;6.00;;;12.30;99.90;;;;;;4427754;32;20457;-82
2021/05/14 04:29:26;;;;;;;9.17;5.73;;;12.30;99.90;;;;;;4427936;32;20155;-83
2021/05/14 04:31:53;;;;;;;10.20;6.20;;;12.40;99.90;;;;;;4426493;32;20139;-82
2021/05/14 04:34:21;;;;;;;10.47;6.20;;;12.50;99.90;;;;;;4428104;32;20207;-83
2021/05/14 04:36:55;;;;;;;10.20;6.07;;;12.50;99.90;;;;;;4427809;32;20409;-82
2021/05/14 04:39:22;;;;;;;10.10;5.90;;;12.60;99.90;;;;;;4427676;32;20200;-84
2021/05/14 04:41:48;;;;;;;9.57;6.10;;;12.60;99.90;;;;;;4427232;32;20519;-82
2021/05/14 04:44:16;;;;;;;9.43;6.10;;;12.60;99.90;;;;;;4427448;32;20139;-80
2021/05/14 04:46:44;;;;;;;11.03;6.30;;;12.70;99.90;;;;;;4426086;32;20487;-82
2021/05/14 04:49:11;;;;;;;10.03;5.73;;;12.70;99.90;;;;;;4426103;32;20190;-82
2021/05/14 04:51:38;;;;;;;8.83;6.20;;;12.70;99.90;;;;;;4426270;32;20233;-81
2021/05/14 04:54:06;;;;;;;10.30;6.20;;;12.80;99.90;;;;;;4425908;32;20165;-82
2021/05/14 04:56:33;;;;;;;9.87;6.23;;;12.90;99.90;;;;;;4426113;32;20187;-81
2021/05/14 04:59:00;;;;;;;9.27;6.47;;;12.90;99.90;;;;;;4425969;32;20230;-81
2021/05/14 05:01:27;;;;;;;15.37;6.63;;;13.10;99.90;;;;;;4427371;32;20139;-81
2021/05/14 05:03:55;;;;;;;10.60;6.90;;;13.20;99.90;;;;;;4427325;32;20161;-80
2021/05/14 05:06:22;;;;;;;12.03;6.37;;;13.30;99.90;;;;;;4425642;32;20139;-81
2021/05/14 05:08:49;;;;;;;12.87;6.80;;;13.50;99.90;;;;;;4425768;32;20177;-81
2021/05/14 05:11:16;;;;;;;10.43;7.10;;;13.70;99.90;;;;;;4425699;32;20139;-81
2021/05/14 05:13:43;;;;;;;9.77;6.40;;;13.90;99.90;;;;;;4412261;32;20151;-82
2021/05/14 05:16:10;;;;;;;9.77;6.77;;;13.90;99.90;;;;;;4427178;32;20438;-81
2021/05/14 05:18:37;;;;;;;11.63;7.87;;;14.10;99.90;;;;;;4425906;32;20142;-82
2021/05/14 05:21:04;;;;;;;16.27;8.23;;;14.10;99.90;;;;;;4427065;32;20135;-82
2021/05/14 05:23:31;;;;;;;15.87;7.90;;;14.20;99.90;;;;;;4425750;32;20154;-81
2021/05/14 05:25:59;;;;;;;14.57;7.50;;;14.30;99.90;;;;;;4425649;32;20556;-80
2021/05/14 05:28:27;;;;;;;11.63;7.27;;;14.60;99.90;;;;;;4426854;32;20224;-81
2021/05/14 05:30:54;;;;;;;12.10;8.00;;;14.80;99.90;;;;;;4425979;32;20147;-81
2021/05/14 05:33:24;;;;;;;12.37;7.87;;;15.00;99.90;;;;;;4426125;32;20433;-81
2021/05/14 05:35:52;;;;;;;13.83;8.83;;;15.20;99.90;;;;;;4425684;32;20363;-82
2021/05/14 05:38:20;;;;;;;13.07;8.27;;;15.20;99.90;;;;;;4425684;32;20175;-83
2021/05/14 05:40:50;;;;;;;14.83;8.27;;;15.40;99.90;;;;;;4425714;32;20192;-84
2021/05/14 05:43:18;;;;;;;17.23;8.00;;;15.70;99.90;;;;;;4425010;32;20167;-83
2021/05/14 05:45:46;;;;;;;13.37;7.43;;;15.90;99.90;;;;;;4424107;32;20439;-83
2021/05/14 05:48:13;;;;;;;12.20;7.97;;;16.10;99.90;;;;;;4426649;32;20242;-84
2021/05/14 05:50:42;;;;;;;10.80;7.60;;;16.30;99.90;;;;;;4424950;32;20130;-84
2021/05/14 05:53:09;;;;;;;14.20;8.00;;;16.50;99.90;;;;;;4426236;32;20460;-84
2021/05/14 05:55:37;;;;;;;11.73;7.87;;;16.60;99.90;;;;;;4425102;32;20139;-84
2021/05/14 05:58:10;;;;;;;11.57;8.10;;;16.70;99.90;;;;;;4425051;32;20154;-85
2021/05/14 06:00:38;;;;;;;14.80;8.37;;;16.70;99.90;;;;;;4424955;32;20138;-84
2021/05/14 06:03:07;;;;;;;13.27;8.50;;;16.80;99.90;;;;;;4425255;32;20158;-83
2021/05/14 06:05:34;;;;;;;18.13;9.63;;;16.90;99.90;;;;;;4425794;32;20193;-84
2021/05/14 06:08:02;;;;;;;17.37;9.90;;;16.80;99.90;;;;;;4424908;32;20241;-84
2021/05/14 06:10:29;;;;;;;15.33;9.87;;;16.90;99.90;;;;;;4424852;32;20134;-84
2021/05/14 06:12:56;;;;;;;16.53;10.10;;;16.80;99.90;;;;;;4424854;32;20160;-82
2021/05/14 06:15:23;;;;;;;16.07;9.63;;;16.80;99.90;;;;;;4426471;32;20379;-83
2021/05/14 06:17:51;;;;;;;15.77;10.70;;;16.80;99.90;;;;;;4425398;32;20158;-83
2021/05/14 06:20:21;;;;;;;17.20;10.70;;;16.70;99.90;;;;;;4425149;32;20334;-84
2021/05/14 06:22:48;;;;;;;17.27;11.20;;;16.70;99.90;;;;;;4424805;32;20198;-84
2021/05/14 06:25:16;;;;;;;18.33;10.73;;;16.60;99.90;;;;;;4426305;32;20139;-84
2021/05/14 06:27:43;;;;;;;16.57;10.43;;;16.70;99.90;;;;;;4424186;32;20155;-86
2021/05/14 06:30:10;;;;;;;16.90;10.37;;;16.70;99.90;;;;;;4424860;32;20196;-85
2021/05/14 06:32:37;;;;;;;17.10;10.37;;;16.80;99.90;;;;;;4424608;32;20192;-84
2021/05/14 06:35:05;;;;;;;21.53;10.87;;;17.00;99.90;;;;;;4424231;32;20430;-84
2021/05/14 06:37:36;;;;;;;18.40;10.73;;;16.90;99.90;;;;;;4425293;32;20166;-84
2021/05/14 06:40:09;;;;;;;18.87;11.10;;;17.00;99.90;;;;;;4425910;32;20414;-83
2021/05/14 06:42:36;;;;;;;21.60;10.43;;;17.20;99.90;;;;;;4423552;32;20177;-83
2021/05/14 06:45:05;;;;;;;21.10;11.10;;;17.30;99.90;;;;;;4424802;32;20138;-84
2021/05/14 06:47:32;;;;;;;18.67;10.23;;;17.40;99.90;;;;;;4423844;32;20181;-83
2021/05/14 06:50:03;;;;;;;21.47;11.43;;;17.60;99.90;;;;;;4424168;32;20480;-84
2021/05/14 06:52:32;;;;;;;17.70;10.07;;;17.70;99.90;;;;;;4424574;32;20243;-83
2021/05/14 06:54:59;;;;;;;19.13;10.73;;;17.80;99.90;;;;;;4425200;32;20389;-83
2021/05/14 06:57:26;;;;;;;16.47;10.07;;;18.00;99.90;;;;;;4424108;32;20147;-83
2021/05/14 06:59:53;;;;;;;15.77;10.17;;;18.00;99.90;;;;;;4424881;32;20261;-84
2021/05/14 07:02:20;;;;;;;16.83;10.43;;;18.10;99.90;;;;;;4424231;32;20216;-84
2021/05/14 07:04:47;;;;;;;15.37;10.57;;;18.20;99.90;;;;;;4424734;32;20135;-84
2021/05/14 07:07:14;;;;;;;17.97;10.23;;;18.30;99.90;;;;;;4424516;32;20140;-80
2021/05/14 07:09:41;;;;;;;20.57;10.67;;;18.30;99.90;;;;;;4425593;32;20187;-83
2021/05/14 07:12:08;;;;;;;16.77;10.13;;;18.30;99.90;;;;;;4410663;32;20139;-77
2021/05/14 07:14:35;;;;;;;17.97;10.40;;;18.40;99.90;;;;;;4425623;32;20184;-76
2021/05/14 07:17:03;;;;;;;17.37;10.33;;;18.10;99.90;;;;;;4424123;32;20537;-78
2021/05/14 07:19:30;;;;;;;17.67;9.30;;;18.20;99.90;;;;;;4424281;32;20166;-78
2021/05/14 07:21:57;;;;;;;19.00;10.57;;;18.40;99.90;;;;;;4424187;32;20131;-78
2021/05/14 07:24:25;;;;;;;20.70;10.77;;;18.40;99.90;;;;;;4422485;32;20362;-77
2021/05/14 07:26:52;;;;;;;17.17;10.27;;;18.30;99.90;;;;;;4423070;32;20166;-77
2021/05/14 07:29:20;;;;;;;15.13;9.67;;;18.20;99.90;;;;;;4422441;32;20162;-78
2021/05/14 07:31:46;;;;;;;18.70;9.43;;;18.30;99.90;;;;;;4421463;32;20339;-78
2021/05/14 07:34:13;;;;;;;15.37;8.70;;;18.60;99.90;;;;;;4421937;32;20477;-74
2021/05/14 07:37:00;;;;;;;14.97;8.80;;;18.90;99.90;;;;;;4420056;32;20392;-77
2021/05/14 07:39:27;;;;;;;15.90;9.70;;;19.20;99.40;;;;;;4421911;32;20159;-77
2021/05/14 07:41:54;;;;;;;17.77;8.90;;;19.20;96.40;;;;;;4420297;32;20177;-76
2021/05/14 07:44:22;;;;;;;15.20;8.50;;;19.00;95.00;;;;;;4421255;32;20198;-76
2021/05/14 07:46:50;;;;;;;17.47;8.47;;;19.00;95.50;;;;;;4422983;32;20143;-77
2021/05/14 07:49:17;;;;;;;15.23;7.50;;;19.20;95.20;;;;;;4424029;32;20131;-77
2021/05/14 07:51:44;;;;;;;16.20;8.20;;;19.40;95.00;;;;;;4424487;32;20460;-76
2021/05/14 07:54:11;;;;;;;14.83;8.63;;;19.70;92.50;;;;;;4424069;32;20180;-77
2021/05/14 07:56:38;;;;;;;14.93;8.10;;;19.70;91.50;;;;;;4423861;32;20423;-77
2021/05/14 07:59:12;;;;;;;13.33;7.50;;;19.60;92.80;;;;;;4425317;32;20158;-77
2021/05/14 08:01:39;;;;;;;12.63;7.50;;;19.70;92.70;;;;;;4424439;32;20193;-76
2021/05/14 08:04:06;;;;;;;11.20;7.50;;;19.80;90.60;;;;;;4424574;32;20142;-77
2021/05/14 08:06:33;;;;;;;14.33;7.17;;;20.00;90.80;;;;;;4423939;32;20131;-77
2021/05/14 08:09:03;;;;;;;12.27;6.30;;;20.20;90.80;;;;;;4424092;32;20196;-76
2021/05/14 08:11:30;;;;;;;7.33;5.20;;;20.40;88.10;;;;;;4426719;32;20226;-78
2021/05/14 08:13:56;;;;;;;9.82;5.55;;;21.10;82.40;;;;;;4428223;32;20143;-77
2021/05/14 08:16:23;;;;;;;8.43;4.78;;;22.00;73.80;;;;;;4427066;32;20172;-77
2021/05/14 08:18:53;;;;;;;7.90;5.10;;;22.90;67.90;;;;;;4427989;32;20492;-77
2021/05/14 08:21:21;;;;;;;9.20;5.82;;;23.70;64.60;;;;;;4426682;32;20423;-78
2021/05/14 08:23:48;;;;;;;7.32;5.12;;;24.40;59.20;;;;;;4426529;32;20135;-77
2021/05/14 08:26:15;;;;;;;7.45;4.30;;;25.00;57.80;;;;;;4426412;32;20135;-76
2021/05/14 08:28:42;;;;;;;8.45;5.10;;;25.60;56.20;;;;;;4426241;32;20449;-77
2021/05/14 08:31:09;;;;;;;7.57;4.55;;;26.00;55.20;;;;;;4426707;32;20150;-78
2021/05/14 08:33:36;;;;;;;9.32;3.42;;;26.50;52.80;;;;;;4426420;32;20372;-77
2021/05/14 08:36:03;;;;;;;7.40;3.47;;;26.60;49.20;;;;;;4426405;32;20396;-77
2021/05/14 08:38:30;;;;;;;12.65;4.55;;;26.90;51.40;;;;;;4426151;32;20523;-78
2021/05/14 08:41:06;;;;;;;8.70;3.80;;;27.00;49.80;;;;;;4426307;32;20210;-77
2021/05/14 08:43:34;;;;;;;7.47;4.25;;;26.60;46.60;;;;;;4426338;32;20151;-77
2021/05/14 08:46:02;;;;;;;9.68;3.90;;;26.10;47.60;;;;;;4427649;32;20131;-78
2021/05/14 08:48:36;;;;;;;7.50;3.97;;;25.30;49.80;;;;;;4426493;32;20135;-78
2021/05/14 08:51:08;;;;;;;6.72;3.85;;;24.60;51.60;;;;;;4427866;32;20161;-77
2021/05/14 08:53:37;;;;;;;4.93;3.12;;;24.30;53.90;;;;;;4425987;32;20196;-77
2021/05/14 08:56:05;;;;;;;5.43;3.10;;;23.90;55.40;;;;;;4425503;32;20391;-77
2021/05/14 08:58:32;;;;;;;7.55;2.67;;;23.40;52.50;;;;;;4426261;32;20177;-77
2021/05/14 09:00:59;;;;;;;4.18;3.05;;;22.90;53.20;;;;;;4425894;32;20165;-77
2021/05/14 09:03:27;;;;;;;6.75;3.45;;;22.60;55.50;;;;;;4426035;32;20198;-77
2021/05/14 09:05:55;;;;;;;5.18;3.20;;;22.30;56.20;;;;;;4427492;32;20139;-78
2021/05/14 09:08:31;;;;;;;7.90;3.75;;;22.30;57.40;;;;;;4425970;32;20499;-77
2021/05/14 09:10:59;;;;;;;7.65;3.70;;;22.20;56.70;;;;;;4427324;32;20142;-77
2021/05/14 09:13:37;;;;;;;8.68;3.80;;;22.20;55.50;;;;;;4425570;32;20189;-77
2021/05/14 09:16:05;;;;;;;8.65;4.00;;;22.10;55.90;;;;;;4426673;32;20166;-77
2021/05/14 09:18:32;;;;;;;10.60;3.67;;;22.30;56.60;;;;;;4425776;32;20135;-77
2021/05/14 09:21:01;;;;;;;8.93;4.00;;;22.50;56.60;;;;;;4424843;32;20186;-77
2021/05/14 09:23:33;;;;;;;6.15;3.60;;;22.80;55.80;;;;;;4425603;32;20150;-77
2021/05/14 09:26:04;;;;;;;6.00;3.83;;;23.50;55.30;;;;;;4425297;32;20143;-77
2021/05/14 09:28:39;;;;;;;5.55;3.45;;;23.90;52.90;;;;;;4425661;32;20157;-77
2021/05/14 09:31:09;;;;;;;8.02;3.67;;;24.50;52.40;;;;;;4426572;32;20134;-76
2021/05/14 09:33:39;;;;;;;8.32;4.12;;;24.90;52.50;;;;;;4425142;32;20192;-77
2021/05/14 09:36:08;;;;;;;7.03;3.80;;;24.90;51.30;;;;;;4424215;32;20460;-77
2021/05/14 09:38:59;;;;;;;5.93;3.50;;;24.50;52.10;;;;;;4424287;32;20131;-76
2021/05/14 09:41:26;;;;;;;8.00;4.07;;;24.70;52.10;;;;;;4426002;32;20523;-78
2021/05/14 09:44:07;;;;;;;7.18;4.62;;;25.00;52.20;;;;;;4424608;32;20207;-78
2021/05/14 09:46:41;;;;;;;7.28;4.95;;;25.10;51.50;;;;;;4426101;32;20169;-76
2021/05/14 09:49:20;;;;;;;6.65;4.47;;;24.80;52.30;;;;;;4424839;32;20259;-76
2021/05/14 09:51:52;;;;;;;8.38;4.82;;;24.90;51.60;;;;;;4424724;32;20201;-77
2021/05/14 09:54:30;;;;;;;8.45;5.30;;;25.00;52.10;;;;;;4424807;32;20161;-78
2021/05/14 09:57:06;;;;;;;8.95;4.97;;;25.20;53.30;;;;;;4425177;32;20199;-78
2021/05/14 09:59:34;;;;;;;11.25;5.75;;;25.60;53.00;;;;;;4425468;32;20161;-78
2021/05/14 10:02:02;;;;;;;8.10;5.28;;;25.80;50.30;;;;;;4426288;32;20196;-77
2021/05/14 10:04:30;;;;;;;6.75;4.65;;;26.60;49.90;;;;;;4425988;32;20131;-77
2021/05/14 10:06:59;;;;;;;7.18;3.90;;;27.40;48.40;;;;;;4424680;32;20131;-78
2021/05/14 10:09:26;;;;;;;6.22;3.90;;;27.70;46.60;;;;;;4424839;32;20176;-78
2021/05/14 10:11:54;;;;;;;6.35;4.28;;;27.90;46.70;;;;;;4425057;32;20135;-78
2021/05/14 10:14:23;;;;;;;6.95;3.65;;;26.70;45.80;;;;;;4424880;32;20194;-78
2021/05/14 10:16:51;;;;;;;6.25;3.70;;;27.00;46.80;;;;;;4424915;32;20157;-78
2021/05/14 10:19:22;;;;;;;7.20;3.10;;;27.30;43.00;;;;;;4425680;32;20142;-78
2021/05/14 10:21:50;;;;;;;6.97;2.97;;;27.30;42.80;;;;;;4424826;32;20139;-78
2021/05/14 10:24:38;;;;;;;4.55;3.28;;;27.70;40.90;;;;;;4426216;32;20166;-78
2021/05/14 10:27:26;;;;;;;6.93;3.47;;;27.90;41.50;;;;;;4426671;32;20132;-78
2021/05/14 10:29:56;;;;;;;6.18;3.33;;;28.50;41.90;;;;;;4424774;32;20481;-77
2021/05/14 10:32:45;;;;;;;5.35;3.20;;;28.10;40.90;;;;;;4424539;32;20158;-78
2021/05/14 10:35:27;;;;;;;4.68;3.65;;;28.30;42.10;;;;;;4423992;32;20179;-79
2021/05/14 10:37:57;;;;;;;5.07;2.80;;;28.60;42.50;;;;;;4424774;32;20442;-78
2021/05/14 10:42:59;;;;;;;6.18;3.85;;;28.00;39.00;;;;;;4424327;32;20176;-78
2021/05/14 10:45:32;;;;;;;7.40;4.00;;;27.90;38.50;;;;;;4424567;32;20179;-78
2021/05/14 10:47:59;;;;;;;6.18;4.40;;;27.80;39.60;;;;;;4424509;32;20139;-78
2021/05/14 10:50:39;;;;;;;6.75;4.37;;;27.70;42.00;;;;;;4410778;32;20127;-77
2021/05/14 10:53:29;;;;;;;6.18;3.97;;;27.80;41.90;;;;;;4425654;32;20161;-78
2021/05/14 10:56:09;;;;;;;4.65;3.78;;;27.80;41.30;;;;;;4424816;32;20188;-78
2021/05/14 10:58:47;;;;;;;5.68;3.70;;;28.00;40.60;;;;;;4425879;32;20183;-78
2021/05/14 11:01:36;;;;;;;8.02;4.25;;;28.60;38.70;;;;;;4424221;32;20155;-78
2021/05/14 11:04:14;;;;;;;5.90;3.65;;;28.60;37.30;;;;;;4424502;32;20222;-78
2021/05/14 11:06:47;;;;;;;5.40;4.07;;;28.10;38.30;;;;;;4424990;32;20127;-78
2021/05/14 11:09:16;;;;;;;6.97;3.92;;;28.00;38.40;;;;;;4425900;32;20127;-78
2021/05/14 11:11:57;;;;;;;5.57;3.72;;;27.30;39.70;;;;;;4424613;32;20161;-78
2021/05/14 11:14:27;;;;;;;6.62;3.70;;;27.70;41.00;;;;;;4425719;32;20419;-78
2021/05/14 11:16:57;;;;;;;7.32;3.83;;;28.50;40.10;;;;;;4424300;32;20162;-78
2021/05/14 11:19:27;;;;;;;4.07;3.67;;;28.60;38.50;;;;;;4424122;32;20142;-78
2021/05/14 11:22:13;;;;;;;8.10;4.07;;;28.90;37.20;;;;;;4425797;32;20171;-77
2021/05/14 11:24:51;;;;;;;6.10;4.20;;;28.70;39.10;;;;;;4425013;32;20143;-77
2021/05/14 11:27:27;;;;;;;8.18;3.97;;;28.80;38.40;;;;;;4423762;32;20474;-78
2021/05/14 11:29:56;;;;;;;5.07;3.50;;;29.50;38.30;;;;;;4424490;32;20138;-78
2021/05/14 11:32:42;;;;;;;8.23;3.50;;;30.00;38.10;;;;;;4424260;32;20134;-78
2021/05/14 11:35:15;;;;;;;4.55;3.28;;;30.80;36.60;;;;;;4424332;32;20478;-77
2021/05/14 11:37:53;;;;;;;7.57;3.83;;;30.10;36.10;;;;;;4424810;32;20468;-78
2021/05/14 11:40:39;;;;;;;5.78;3.92;;;29.00;36.70;;;;;;4424169;32;20138;-77
2021/05/14 11:43:11;;;;;;;6.47;4.68;;;28.90;36.50;;;;;;4424445;32;20166;-79
2021/05/14 11:45:43;;;;;;;8.02;3.90;;;27.10;38.50;;;;;;4426644;32;20508;-78
2021/05/14 11:48:15;;;;;;;9.20;3.70;;;27.40;40.50;;;;;;4427034;32;20159;-78
2021/05/14 11:50:55;;;;;;;5.35;3.40;;;28.50;37.70;;;;;;4428671;32;20139;-78
2021/05/14 11:53:25;;;;;;;6.78;3.95;;;29.20;37.70;;;;;;4426947;32;20268;-79
2021/05/14 11:55:54;;;;;;;6.20;3.28;;;29.80;36.80;;;;;;4427999;32;20162;-79
2021/05/14 11:58:24;;;;;;;5.30;3.30;;;30.50;36.00;;;;;;4427052;32;20135;-78
2021/05/14 12:00:52;;;;;;;4.70;3.10;;;30.80;35.80;;;;;;4428804;32;20143;-78
2021/05/14 12:03:23;;;;;;;6.03;2.83;;;30.90;35.50;;;;;;4428470;32;20139;-78
2021/05/14 12:05:51;;;;;;;3.92;3.20;;;30.50;36.40;;;;;;4426431;32;20139;-78
2021/05/14 12:08:28;;;;;;;5.55;3.40;;;29.90;37.20;;;;;;4426722;32;20178;-77
2021/05/14 12:11:01;;;;;;;6.32;3.00;;;29.30;37.00;;;;;;4426999;32;20434;-78
2021/05/14 12:13:38;;;;;;;5.20;3.10;;;30.10;37.00;;;;;;4426122;32;20150;-78
2021/05/14 12:16:07;;;;;;;5.87;3.50;;;30.30;35.20;;;;;;4428278;32;20192;-78
2021/05/14 12:18:45;;;;;;;6.03;3.78;;;28.50;37.20;;;;;;4426724;32;20149;-78
2021/05/14 12:21:28;;;;;;;7.03;3.45;;;29.40;37.90;;;;;;4426910;32;20255;-78
2021/05/14 12:23:57;;;;;;;5.87;3.75;;;30.50;37.90;;;;;;4428113;32;20196;-78
2021/05/14 12:26:29;;;;;;;6.65;4.70;;;31.20;37.40;;;;;;4426987;32;20184;-77
2021/05/14 12:28:56;;;;;;;9.55;5.50;;;30.90;36.00;;;;;;4426433;32;20159;-78
2021/05/14 12:31:26;;;;;;;6.95;4.57;;;29.90;39.10;;;;;;4426557;32;20174;-78
2021/05/14 12:34:14;;;;;;;8.43;4.68;;;31.00;38.80;;;;;;4427802;32;20170;-78
2021/05/14 12:36:41;;;;;;;9.23;4.72;;;32.10;38.20;;;;;;4427955;32;20135;-78
2021/05/14 12:39:14;;;;;;;8.45;5.00;;;32.90;35.70;;;;;;4428079;32;20185;-78
2021/05/14 12:41:43;;;;;;;9.27;4.80;;;32.90;34.50;;;;;;4428102;32;20151;-78
2021/05/14 12:44:18;;;;;;;9.70;4.85;;;31.90;34.70;;;;;;4425733;32;20196;-78
2021/05/14 12:47:03;;;;;;;6.57;4.75;;;32.30;34.60;;;;;;4426296;32;20146;-78
2021/05/14 12:49:40;;;;;;;8.40;5.07;;;32.10;34.30;;;;;;4426134;32;20495;-78
2021/05/14 12:52:09;;;;;;;5.80;4.90;;;31.80;34.50;;;;;;4427496;32;20528;-78
2021/05/14 12:54:38;;;;;;;8.70;5.93;;;31.20;35.60;;;;;;4425918;32;20456;-77
2021/05/14 12:57:23;;;;;;;8.63;5.00;;;30.30;36.60;;;;;;4426960;32;20165;-77
2021/05/14 12:59:50;;;;;;;9.60;6.60;;;29.80;37.30;;;;;;4426213;32;20239;-77
2021/05/14 13:02:37;;;;;;;8.38;6.00;;;29.50;40.20;;;;;;4425838;32;20155;-77